sensor_id;sensor_type;location;lat;lon;timestamp;P1;durP1;ratioP1;P2;durP2;ratioP2
1154;SDS011;566;48.414;9.118;2023-04-24T00:00:10;2.65;;;0.95;;
1154;SDS011;566;48.414;9.118;2023-04-24T00:02:40;2.70;;;1.02;;
1154;SDS011;566;48.414;9.118;2023-04-24T00:05:11;1.55;;;1.00;;
1154;SDS011;566;48.414;9.118;2023-04-24T00:07:38;2.65;;;0.88;;
1154;SDS011;566;48.414;9.118;2023-04-24T00:10:05;3.38;;;0.90;;
1154;SDS011;566;48.414;9.118;2023-04-24T00:12:31;2.60;;;0.90;;
1154;SDS011;566;48.414;9.118;2023-04-24T00:14:56;2.53;;;1.00;;
1154;SDS011;566;48.414;9.118;2023-04-24T00:17:22;3.13;;;0.95;;
1154;SDS011;566;48.414;9.118;2023-04-24T00:19:49;2.00;;;0.80;;
1154;SDS011;566;48.414;9.118;2023-04-24T00:22:16;3.40;;;1.00;;
1154;SDS011;566;48.414;9.118;2023-04-24T00:24:42;4.15;;;1.20;;
1154;SDS011;566;48.414;9.118;2023-04-24T00:27:11;3.28;;;0.80;;
1154;SDS011;566;48.414;9.118;2023-04-24T00:29:36;3.85;;;0.90;;
1154;SDS011;566;48.414;9.118;2023-04-24T00:32:02;2.97;;;0.90;;
1154;SDS011;566;48.414;9.118;2023-04-24T00:34:31;1.95;;;0.93;;
1154;SDS011;566;48.414;9.118;2023-04-24T00:36:57;2.50;;;1.00;;
1154;SDS011;566;48.414;9.118;2023-04-24T00:39:23;2.45;;;0.80;;
1154;SDS011;566;48.414;9.118;2023-04-24T00:41:48;3.55;;;1.00;;
1154;SDS011;566;48.414;9.118;2023-04-24T00:44:15;2.17;;;1.00;;
1154;SDS011;566;48.414;9.118;2023-04-24T00:46:42;2.13;;;0.85;;
1154;SDS011;566;48.414;9.118;2023-04-24T00:49:07;3.22;;;1.10;;
1154;SDS011;566;48.414;9.118;2023-04-24T00:51:33;3.55;;;0.98;;
1154;SDS011;566;48.414;9.118;2023-04-24T00:53:59;2.67;;;1.05;;
1154;SDS011;566;48.414;9.118;2023-04-24T00:56:25;3.13;;;1.05;;
1154;SDS011;566;48.414;9.118;2023-04-24T00:58:51;2.53;;;1.02;;
1154;SDS011;566;48.414;9.118;2023-04-24T01:01:17;2.90;;;1.10;;
1154;SDS011;566;48.414;9.118;2023-04-24T01:03:45;2.03;;;0.90;;
1154;SDS011;566;48.414;9.118;2023-04-24T01:06:11;3.47;;;1.00;;
1154;SDS011;566;48.414;9.118;2023-04-24T01:08:37;2.88;;;0.98;;
1154;SDS011;566;48.414;9.118;2023-04-24T01:11:04;2.50;;;1.10;;
1154;SDS011;566;48.414;9.118;2023-04-24T01:13:31;2.53;;;0.98;;
1154;SDS011;566;48.414;9.118;2023-04-24T01:15:57;2.90;;;1.00;;
1154;SDS011;566;48.414;9.118;2023-04-24T01:18:23;4.25;;;1.20;;
1154;SDS011;566;48.414;9.118;2023-04-24T01:20:50;2.85;;;1.10;;
1154;SDS011;566;48.414;9.118;2023-04-24T01:23:17;2.35;;;1.00;;
1154;SDS011;566;48.414;9.118;2023-04-24T01:25:43;3.50;;;1.10;;
1154;SDS011;566;48.414;9.118;2023-04-24T01:28:09;4.65;;;1.40;;
1154;SDS011;566;48.414;9.118;2023-04-24T01:30:35;1.75;;;1.00;;
1154;SDS011;566;48.414;9.118;2023-04-24T01:33:01;3.60;;;1.13;;
1154;SDS011;566;48.414;9.118;2023-04-24T01:35:27;3.92;;;1.20;;
1154;SDS011;566;48.414;9.118;2023-04-24T01:37:53;1.90;;;0.95;;
1154;SDS011;566;48.414;9.118;2023-04-24T01:40:19;2.97;;;1.10;;
1154;SDS011;566;48.414;9.118;2023-04-24T01:42:44;5.45;;;1.40;;
1154;SDS011;566;48.414;9.118;2023-04-24T01:45:13;3.40;;;1.10;;
1154;SDS011;566;48.414;9.118;2023-04-24T01:47:39;2.55;;;1.13;;
1154;SDS011;566;48.414;9.118;2023-04-24T01:50:05;3.05;;;1.17;;
1154;SDS011;566;48.414;9.118;2023-04-24T01:52:31;2.38;;;1.10;;
1154;SDS011;566;48.414;9.118;2023-04-24T01:55:01;3.35;;;1.13;;
1154;SDS011;566;48.414;9.118;2023-04-24T01:57:29;3.78;;;1.13;;
1154;SDS011;566;48.414;9.118;2023-04-24T01:59:55;3.25;;;1.20;;
1154;SDS011;566;48.414;9.118;2023-04-24T02:02:21;2.20;;;0.90;;
1154;SDS011;566;48.414;9.118;2023-04-24T02:04:49;2.97;;;1.00;;
1154;SDS011;566;48.414;9.118;2023-04-24T02:07:15;2.08;;;0.85;;
1154;SDS011;566;48.414;9.118;2023-04-24T02:09:40;3.00;;;1.00;;
1154;SDS011;566;48.414;9.118;2023-04-24T02:12:06;2.38;;;1.08;;
1154;SDS011;566;48.414;9.118;2023-04-24T02:14:32;2.70;;;1.10;;
1154;SDS011;566;48.414;9.118;2023-04-24T02:16:57;3.72;;;1.17;;
1154;SDS011;566;48.414;9.118;2023-04-24T02:19:23;3.05;;;1.10;;
1154;SDS011;566;48.414;9.118;2023-04-24T02:21:49;3.85;;;1.30;;
1154;SDS011;566;48.414;9.118;2023-04-24T02:24:14;3.50;;;1.38;;
1154;SDS011;566;48.414;9.118;2023-04-24T02:26:40;2.72;;;1.20;;
1154;SDS011;566;48.414;9.118;2023-04-24T02:29:06;3.33;;;1.20;;
1154;SDS011;566;48.414;9.118;2023-04-24T02:31:31;3.58;;;1.30;;
1154;SDS011;566;48.414;9.118;2023-04-24T02:33:57;6.10;;;1.58;;
1154;SDS011;566;48.414;9.118;2023-04-24T02:36:23;4.43;;;1.23;;
1154;SDS011;566;48.414;9.118;2023-04-24T02:38:48;6.13;;;1.33;;
1154;SDS011;566;48.414;9.118;2023-04-24T02:41:14;3.05;;;1.25;;
1154;SDS011;566;48.414;9.118;2023-04-24T02:43:39;3.85;;;1.30;;
1154;SDS011;566;48.414;9.118;2023-04-24T02:46:05;2.55;;;1.20;;
1154;SDS011;566;48.414;9.118;2023-04-24T02:48:31;5.30;;;1.30;;
1154;SDS011;566;48.414;9.118;2023-04-24T02:50:56;2.78;;;1.17;;
1154;SDS011;566;48.414;9.118;2023-04-24T02:53:31;5.18;;;1.30;;
1154;SDS011;566;48.414;9.118;2023-04-24T02:55:59;3.35;;;1.20;;
1154;SDS011;566;48.414;9.118;2023-04-24T02:58:29;4.15;;;1.20;;
1154;SDS011;566;48.414;9.118;2023-04-24T03:00:55;3.67;;;1.30;;
1154;SDS011;566;48.414;9.118;2023-04-24T03:03:23;3.92;;;1.50;;
1154;SDS011;566;48.414;9.118;2023-04-24T03:05:50;5.07;;;1.25;;
1154;SDS011;566;48.414;9.118;2023-04-24T03:08:15;3.50;;;1.13;;
1154;SDS011;566;48.414;9.118;2023-04-24T03:10:41;3.10;;;1.08;;
1154;SDS011;566;48.414;9.118;2023-04-24T03:13:06;3.38;;;1.10;;
1154;SDS011;566;48.414;9.118;2023-04-24T03:15:32;4.70;;;1.38;;
1154;SDS011;566;48.414;9.118;2023-04-24T03:17:57;3.25;;;1.00;;
1154;SDS011;566;48.414;9.118;2023-04-24T03:20:23;2.88;;;1.20;;
1154;SDS011;566;48.414;9.118;2023-04-24T03:22:51;5.82;;;1.27;;
1154;SDS011;566;48.414;9.118;2023-04-24T03:25:17;2.40;;;1.02;;
1154;SDS011;566;48.414;9.118;2023-04-24T03:27:43;1.85;;;0.90;;
1154;SDS011;566;48.414;9.118;2023-04-24T03:30:08;2.30;;;1.10;;
1154;SDS011;566;48.414;9.118;2023-04-24T03:32:34;3.08;;;1.20;;
1154;SDS011;566;48.414;9.118;2023-04-24T03:35:00;3.15;;;1.35;;
1154;SDS011;566;48.414;9.118;2023-04-24T03:37:25;5.55;;;1.63;;
1154;SDS011;566;48.414;9.118;2023-04-24T03:39:51;5.38;;;1.42;;
1154;SDS011;566;48.414;9.118;2023-04-24T03:42:17;4.65;;;1.40;;
1154;SDS011;566;48.414;9.118;2023-04-24T03:44:45;2.78;;;1.30;;
1154;SDS011;566;48.414;9.118;2023-04-24T03:47:11;3.45;;;1.20;;
1154;SDS011;566;48.414;9.118;2023-04-24T03:49:36;5.82;;;1.63;;
1154;SDS011;566;48.414;9.118;2023-04-24T03:52:02;3.50;;;1.48;;
1154;SDS011;566;48.414;9.118;2023-04-24T03:54:27;3.38;;;1.50;;
1154;SDS011;566;48.414;9.118;2023-04-24T03:56:53;2.50;;;1.20;;
1154;SDS011;566;48.414;9.118;2023-04-24T03:59:19;2.10;;;1.02;;
1154;SDS011;566;48.414;9.118;2023-04-24T04:01:45;5.38;;;1.30;;
1154;SDS011;566;48.414;9.118;2023-04-24T04:04:11;3.30;;;1.20;;
1154;SDS011;566;48.414;9.118;2023-04-24T04:06:37;3.22;;;1.25;;
1154;SDS011;566;48.414;9.118;2023-04-24T04:09:02;3.05;;;1.10;;
1154;SDS011;566;48.414;9.118;2023-04-24T04:11:28;4.50;;;1.30;;
1154;SDS011;566;48.414;9.118;2023-04-24T04:13:53;4.05;;;1.52;;
1154;SDS011;566;48.414;9.118;2023-04-24T04:16:19;2.90;;;1.10;;
1154;SDS011;566;48.414;9.118;2023-04-24T04:18:45;4.35;;;1.20;;
1154;SDS011;566;48.414;9.118;2023-04-24T04:21:11;2.95;;;1.23;;
1154;SDS011;566;48.414;9.118;2023-04-24T04:23:36;2.63;;;1.00;;
1154;SDS011;566;48.414;9.118;2023-04-24T04:26:02;2.70;;;1.00;;
1154;SDS011;566;48.414;9.118;2023-04-24T04:28:29;2.13;;;0.80;;
1154;SDS011;566;48.414;9.118;2023-04-24T04:30:56;2.40;;;0.90;;
1154;SDS011;566;48.414;9.118;2023-04-24T04:33:22;3.47;;;1.00;;
1154;SDS011;566;48.414;9.118;2023-04-24T04:35:48;2.97;;;1.00;;
1154;SDS011;566;48.414;9.118;2023-04-24T04:38:14;1.52;;;0.90;;
1154;SDS011;566;48.414;9.118;2023-04-24T04:40:41;3.03;;;1.00;;
1154;SDS011;566;48.414;9.118;2023-04-24T04:43:07;2.25;;;1.10;;
1154;SDS011;566;48.414;9.118;2023-04-24T04:45:33;3.80;;;1.00;;
1154;SDS011;566;48.414;9.118;2023-04-24T04:47:59;2.88;;;1.20;;
1154;SDS011;566;48.414;9.118;2023-04-24T04:50:26;3.55;;;1.08;;
1154;SDS011;566;48.414;9.118;2023-04-24T04:52:52;5.47;;;1.70;;
1154;SDS011;566;48.414;9.118;2023-04-24T04:55:18;6.93;;;1.85;;
1154;SDS011;566;48.414;9.118;2023-04-24T04:57:45;4.63;;;2.20;;
1154;SDS011;566;48.414;9.118;2023-04-24T05:00:11;5.13;;;2.20;;
1154;SDS011;566;48.414;9.118;2023-04-24T05:02:40;8.45;;;2.90;;
1154;SDS011;566;48.414;9.118;2023-04-24T05:05:06;5.35;;;3.00;;
1154;SDS011;566;48.414;9.118;2023-04-24T05:07:32;6.55;;;3.70;;
1154;SDS011;566;48.414;9.118;2023-04-24T05:09:58;6.35;;;3.67;;
1154;SDS011;566;48.414;9.118;2023-04-24T05:12:23;8.10;;;3.60;;
1154;SDS011;566;48.414;9.118;2023-04-24T05:14:49;8.55;;;3.55;;
1154;SDS011;566;48.414;9.118;2023-04-24T05:17:15;7.38;;;3.30;;
1154;SDS011;566;48.414;9.118;2023-04-24T05:19:41;8.60;;;3.15;;
1154;SDS011;566;48.414;9.118;2023-04-24T05:22:06;6.13;;;3.20;;
1154;SDS011;566;48.414;9.118;2023-04-24T05:24:33;5.18;;;2.88;;
1154;SDS011;566;48.414;9.118;2023-04-24T05:26:59;4.78;;;2.90;;
1154;SDS011;566;48.414;9.118;2023-04-24T05:29:24;4.88;;;2.92;;
1154;SDS011;566;48.414;9.118;2023-04-24T05:31:51;4.63;;;2.78;;
1154;SDS011;566;48.414;9.118;2023-04-24T05:34:17;4.53;;;2.85;;
1154;SDS011;566;48.414;9.118;2023-04-24T05:36:43;6.32;;;3.20;;
1154;SDS011;566;48.414;9.118;2023-04-24T05:39:08;7.32;;;3.70;;
1154;SDS011;566;48.414;9.118;2023-04-24T05:41:34;9.02;;;3.97;;
1154;SDS011;566;48.414;9.118;2023-04-24T05:44:00;6.30;;;3.20;;
1154;SDS011;566;48.414;9.118;2023-04-24T05:46:25;5.43;;;3.20;;
1154;SDS011;566;48.414;9.118;2023-04-24T05:48:51;5.80;;;3.25;;
1154;SDS011;566;48.414;9.118;2023-04-24T05:51:16;4.65;;;2.90;;
1154;SDS011;566;48.414;9.118;2023-04-24T05:53:42;6.75;;;3.20;;
1154;SDS011;566;48.414;9.118;2023-04-24T05:56:08;6.53;;;3.17;;
1154;SDS011;566;48.414;9.118;2023-04-24T05:58:33;5.50;;;3.42;;
1154;SDS011;566;48.414;9.118;2023-04-24T06:00:59;4.40;;;2.63;;
1154;SDS011;566;48.414;9.118;2023-04-24T06:03:26;5.00;;;2.90;;
1154;SDS011;566;48.414;9.118;2023-04-24T06:05:52;6.50;;;2.70;;
1154;SDS011;566;48.414;9.118;2023-04-24T06:08:18;9.07;;;3.75;;
1154;SDS011;566;48.414;9.118;2023-04-24T06:10:44;6.30;;;3.58;;
1154;SDS011;566;48.414;9.118;2023-04-24T06:13:10;7.57;;;3.20;;
1154;SDS011;566;48.414;9.118;2023-04-24T06:15:36;5.90;;;3.55;;
1154;SDS011;566;48.414;9.118;2023-04-24T06:18:05;7.22;;;3.47;;
1154;SDS011;566;48.414;9.118;2023-04-24T06:20:35;5.53;;;3.33;;
1154;SDS011;566;48.414;9.118;2023-04-24T06:23:01;7.25;;;2.83;;
1154;SDS011;566;48.414;9.118;2023-04-24T06:25:26;7.85;;;3.42;;
1154;SDS011;566;48.414;9.118;2023-04-24T06:27:52;4.90;;;2.63;;
1154;SDS011;566;48.414;9.118;2023-04-24T06:30:19;5.25;;;3.03;;
1154;SDS011;566;48.414;9.118;2023-04-24T06:32:44;5.55;;;3.00;;
1154;SDS011;566;48.414;9.118;2023-04-24T06:35:10;4.10;;;2.50;;
1154;SDS011;566;48.414;9.118;2023-04-24T06:37:38;7.82;;;3.38;;
1154;SDS011;566;48.414;9.118;2023-04-24T06:40:05;7.38;;;3.20;;
1154;SDS011;566;48.414;9.118;2023-04-24T06:42:31;6.82;;;3.15;;
1154;SDS011;566;48.414;9.118;2023-04-24T06:44:57;4.88;;;2.75;;
1154;SDS011;566;48.414;9.118;2023-04-24T06:47:23;7.25;;;2.55;;
1154;SDS011;566;48.414;9.118;2023-04-24T06:49:48;5.88;;;2.55;;
1154;SDS011;566;48.414;9.118;2023-04-24T06:52:16;6.47;;;2.67;;
1154;SDS011;566;48.414;9.118;2023-04-24T06:54:41;6.07;;;3.30;;
1154;SDS011;566;48.414;9.118;2023-04-24T06:57:10;5.40;;;3.00;;
1154;SDS011;566;48.414;9.118;2023-04-24T06:59:35;6.22;;;2.83;;
1154;SDS011;566;48.414;9.118;2023-04-24T07:02:01;6.05;;;2.90;;
1154;SDS011;566;48.414;9.118;2023-04-24T07:04:28;5.72;;;2.92;;
1154;SDS011;566;48.414;9.118;2023-04-24T07:06:53;7.18;;;3.90;;
1154;SDS011;566;48.414;9.118;2023-04-24T07:09:20;8.23;;;3.30;;
1154;SDS011;566;48.414;9.118;2023-04-24T07:11:46;8.05;;;3.45;;
1154;SDS011;566;48.414;9.118;2023-04-24T07:14:13;8.20;;;3.30;;
1154;SDS011;566;48.414;9.118;2023-04-24T07:16:38;5.80;;;3.50;;
1154;SDS011;566;48.414;9.118;2023-04-24T07:19:04;5.55;;;3.03;;
1154;SDS011;566;48.414;9.118;2023-04-24T07:21:30;5.93;;;3.45;;
1154;SDS011;566;48.414;9.118;2023-04-24T07:23:56;7.72;;;3.40;;
1154;SDS011;566;48.414;9.118;2023-04-24T07:26:22;5.47;;;3.67;;
1154;SDS011;566;48.414;9.118;2023-04-24T07:28:48;7.13;;;3.97;;
1154;SDS011;566;48.414;9.118;2023-04-24T07:31:14;6.05;;;3.17;;
1154;SDS011;566;48.414;9.118;2023-04-24T07:33:39;6.15;;;3.65;;
1154;SDS011;566;48.414;9.118;2023-04-24T07:36:05;5.03;;;3.15;;
1154;SDS011;566;48.414;9.118;2023-04-24T07:38:31;5.72;;;3.05;;
1154;SDS011;566;48.414;9.118;2023-04-24T07:40:56;6.22;;;3.30;;
1154;SDS011;566;48.414;9.118;2023-04-24T07:43:25;5.82;;;2.53;;
1154;SDS011;566;48.414;9.118;2023-04-24T07:45:50;8.77;;;2.50;;
1154;SDS011;566;48.414;9.118;2023-04-24T07:48:16;5.03;;;2.58;;
1154;SDS011;566;48.414;9.118;2023-04-24T07:50:42;5.65;;;2.80;;
1154;SDS011;566;48.414;9.118;2023-04-24T07:53:09;5.18;;;2.65;;
1154;SDS011;566;48.414;9.118;2023-04-24T07:55:35;4.95;;;2.45;;
1154;SDS011;566;48.414;9.118;2023-04-24T07:58:00;4.57;;;2.47;;
1154;SDS011;566;48.414;9.118;2023-04-24T08:00:26;6.95;;;2.30;;
1154;SDS011;566;48.414;9.118;2023-04-24T08:02:51;5.60;;;2.40;;
1154;SDS011;566;48.414;9.118;2023-04-24T08:05:17;6.00;;;2.50;;
1154;SDS011;566;48.414;9.118;2023-04-24T08:07:42;6.03;;;2.47;;
1154;SDS011;566;48.414;9.118;2023-04-24T08:10:10;5.55;;;2.10;;
1154;SDS011;566;48.414;9.118;2023-04-24T08:12:36;5.82;;;2.28;;
1154;SDS011;566;48.414;9.118;2023-04-24T08:15:02;5.13;;;2.20;;
1154;SDS011;566;48.414;9.118;2023-04-24T08:17:29;5.35;;;2.40;;
1154;SDS011;566;48.414;9.118;2023-04-24T08:19:55;5.45;;;2.85;;
1154;SDS011;566;48.414;9.118;2023-04-24T08:22:26;4.15;;;2.10;;
1154;SDS011;566;48.414;9.118;2023-04-24T08:24:52;4.38;;;2.58;;
1154;SDS011;566;48.414;9.118;2023-04-24T08:27:18;5.03;;;2.38;;
1154;SDS011;566;48.414;9.118;2023-04-24T08:29:43;4.80;;;2.40;;
1154;SDS011;566;48.414;9.118;2023-04-24T08:32:09;4.75;;;2.55;;
1154;SDS011;566;48.414;9.118;2023-04-24T08:34:35;4.93;;;2.25;;
1154;SDS011;566;48.414;9.118;2023-04-24T08:37:00;7.35;;;2.63;;
1154;SDS011;566;48.414;9.118;2023-04-24T08:39:27;4.93;;;2.60;;
1154;SDS011;566;48.414;9.118;2023-04-24T08:41:52;5.38;;;3.17;;
1154;SDS011;566;48.414;9.118;2023-04-24T08:44:18;9.48;;;3.50;;
1154;SDS011;566;48.414;9.118;2023-04-24T08:46:45;8.57;;;4.10;;
1154;SDS011;566;48.414;9.118;2023-04-24T08:49:13;7.13;;;2.85;;
1154;SDS011;566;48.414;9.118;2023-04-24T08:51:41;6.50;;;3.38;;
1154;SDS011;566;48.414;9.118;2023-04-24T08:54:07;5.70;;;2.75;;
1154;SDS011;566;48.414;9.118;2023-04-24T08:56:33;4.75;;;2.67;;
1154;SDS011;566;48.414;9.118;2023-04-24T08:59:02;9.82;;;6.57;;
1154;SDS011;566;48.414;9.118;2023-04-24T09:01:29;7.22;;;4.20;;
1154;SDS011;566;48.414;9.118;2023-04-24T09:03:58;8.68;;;4.05;;
1154;SDS011;566;48.414;9.118;2023-04-24T09:06:28;7.72;;;2.67;;
1154;SDS011;566;48.414;9.118;2023-04-24T09:08:57;7.03;;;2.78;;
1154;SDS011;566;48.414;9.118;2023-04-24T09:11:25;10.55;;;2.45;;
1154;SDS011;566;48.414;9.118;2023-04-24T09:13:53;5.40;;;3.05;;
1154;SDS011;566;48.414;9.118;2023-04-24T09:16:19;3.95;;;2.22;;
1154;SDS011;566;48.414;9.118;2023-04-24T09:18:45;4.53;;;2.15;;
1154;SDS011;566;48.414;9.118;2023-04-24T09:21:11;4.63;;;2.15;;
1154;SDS011;566;48.414;9.118;2023-04-24T09:23:36;7.10;;;2.08;;
1154;SDS011;566;48.414;9.118;2023-04-24T09:26:03;5.22;;;2.15;;
1154;SDS011;566;48.414;9.118;2023-04-24T09:28:34;7.55;;;2.58;;
1154;SDS011;566;48.414;9.118;2023-04-24T09:31:04;5.07;;;2.88;;
1154;SDS011;566;48.414;9.118;2023-04-24T09:36:28;7.07;;;2.80;;
1154;SDS011;566;48.414;9.118;2023-04-24T09:39:00;7.85;;;2.85;;
1154;SDS011;566;48.414;9.118;2023-04-24T09:41:27;5.93;;;2.83;;
1154;SDS011;566;48.414;9.118;2023-04-24T09:43:54;8.32;;;3.85;;
1154;SDS011;566;48.414;9.118;2023-04-24T09:46:20;7.32;;;3.10;;
1154;SDS011;566;48.414;9.118;2023-04-24T09:48:48;8.02;;;3.95;;
1154;SDS011;566;48.414;9.118;2023-04-24T09:51:14;8.85;;;2.65;;
1154;SDS011;566;48.414;9.118;2023-04-24T09:53:46;6.43;;;2.60;;
1154;SDS011;566;48.414;9.118;2023-04-24T09:56:12;5.68;;;2.30;;
1154;SDS011;566;48.414;9.118;2023-04-24T09:58:38;6.57;;;2.33;;
1154;SDS011;566;48.414;9.118;2023-04-24T10:01:04;5.22;;;2.50;;
1154;SDS011;566;48.414;9.118;2023-04-24T10:03:30;6.45;;;2.15;;
1154;SDS011;566;48.414;9.118;2023-04-24T10:06:01;5.95;;;2.78;;
1154;SDS011;566;48.414;9.118;2023-04-24T10:08:33;5.35;;;2.35;;
1154;SDS011;566;48.414;9.118;2023-04-24T10:10:59;6.25;;;2.67;;
1154;SDS011;566;48.414;9.118;2023-04-24T10:13:26;5.15;;;2.55;;
1154;SDS011;566;48.414;9.118;2023-04-24T10:15:52;4.75;;;2.55;;
1154;SDS011;566;48.414;9.118;2023-04-24T10:18:18;6.38;;;2.70;;
1154;SDS011;566;48.414;9.118;2023-04-24T10:20:46;4.45;;;2.40;;
1154;SDS011;566;48.414;9.118;2023-04-24T10:23:12;4.78;;;2.10;;
1154;SDS011;566;48.414;9.118;2023-04-24T10:25:37;4.93;;;2.35;;
1154;SDS011;566;48.414;9.118;2023-04-24T10:28:03;4.70;;;1.98;;
1154;SDS011;566;48.414;9.118;2023-04-24T10:30:31;5.20;;;2.17;;
1154;SDS011;566;48.414;9.118;2023-04-24T10:33:00;3.88;;;2.03;;
1154;SDS011;566;48.414;9.118;2023-04-24T10:35:39;4.20;;;1.80;;
1154;SDS011;566;48.414;9.118;2023-04-24T10:38:14;4.63;;;1.67;;
1154;SDS011;566;48.414;9.118;2023-04-24T10:40:43;4.82;;;1.90;;
1154;SDS011;566;48.414;9.118;2023-04-24T10:43:09;5.18;;;1.50;;
1154;SDS011;566;48.414;9.118;2023-04-24T10:45:36;5.75;;;1.70;;
1154;SDS011;566;48.414;9.118;2023-04-24T10:48:05;3.65;;;1.50;;
1154;SDS011;566;48.414;9.118;2023-04-24T10:50:45;9.95;;;2.30;;
1154;SDS011;566;48.414;9.118;2023-04-24T10:53:14;4.97;;;1.70;;
1154;SDS011;566;48.414;9.118;2023-04-24T10:58:10;6.85;;;3.70;;
1154;SDS011;566;48.414;9.118;2023-04-24T11:00:37;7.40;;;1.98;;
1154;SDS011;566;48.414;9.118;2023-04-24T11:03:12;9.90;;;1.80;;
1154;SDS011;566;48.414;9.118;2023-04-24T11:05:55;3.92;;;1.80;;
1154;SDS011;566;48.414;9.118;2023-04-24T11:08:28;3.03;;;1.67;;
1154;SDS011;566;48.414;9.118;2023-04-24T11:11:01;5.10;;;1.70;;
1154;SDS011;566;48.414;9.118;2023-04-24T11:16:29;4.35;;;1.80;;
1154;SDS011;566;48.414;9.118;2023-04-24T11:19:07;6.70;;;2.22;;
1154;SDS011;566;48.414;9.118;2023-04-24T11:27:09;8.30;;;2.15;;
1154;SDS011;566;48.414;9.118;2023-04-24T11:34:51;4.45;;;1.35;;
1154;SDS011;566;48.414;9.118;2023-04-24T11:37:19;5.15;;;1.80;;
1154;SDS011;566;48.414;9.118;2023-04-24T11:39:44;4.43;;;1.67;;
1154;SDS011;566;48.414;9.118;2023-04-24T11:42:10;4.00;;;1.33;;
1154;SDS011;566;48.414;9.118;2023-04-24T11:44:39;6.18;;;1.98;;
1154;SDS011;566;48.414;9.118;2023-04-24T11:47:06;4.40;;;1.65;;
1154;SDS011;566;48.414;9.118;2023-04-24T11:49:36;5.03;;;1.77;;
1154;SDS011;566;48.414;9.118;2023-04-24T11:52:02;3.63;;;1.80;;
1154;SDS011;566;48.414;9.118;2023-04-24T11:54:28;6.78;;;2.70;;
1154;SDS011;566;48.414;9.118;2023-04-24T11:56:57;3.85;;;1.70;;
1154;SDS011;566;48.414;9.118;2023-04-24T11:59:22;3.25;;;1.63;;
1154;SDS011;566;48.414;9.118;2023-04-24T12:01:48;4.88;;;1.48;;
1154;SDS011;566;48.414;9.118;2023-04-24T12:04:15;4.00;;;1.60;;
1154;SDS011;566;48.414;9.118;2023-04-24T12:09:39;3.20;;;1.65;;
1154;SDS011;566;48.414;9.118;2023-04-24T12:12:06;3.40;;;1.27;;
1154;SDS011;566;48.414;9.118;2023-04-24T12:14:32;5.03;;;1.73;;
1154;SDS011;566;48.414;9.118;2023-04-24T12:16:57;4.82;;;1.60;;
1154;SDS011;566;48.414;9.118;2023-04-24T12:19:23;7.07;;;2.25;;
1154;SDS011;566;48.414;9.118;2023-04-24T12:21:59;5.65;;;2.13;;
1154;SDS011;566;48.414;9.118;2023-04-24T12:24:25;5.38;;;2.28;;
1154;SDS011;566;48.414;9.118;2023-04-24T12:26:51;6.50;;;2.80;;
1154;SDS011;566;48.414;9.118;2023-04-24T12:29:21;4.60;;;2.08;;
1154;SDS011;566;48.414;9.118;2023-04-24T12:31:50;6.20;;;2.03;;
1154;SDS011;566;48.414;9.118;2023-04-24T12:34:23;8.68;;;2.60;;
1154;SDS011;566;48.414;9.118;2023-04-24T12:36:50;6.53;;;2.40;;
1154;SDS011;566;48.414;9.118;2023-04-24T12:39:16;7.15;;;2.67;;
1154;SDS011;566;48.414;9.118;2023-04-24T12:41:56;5.20;;;2.67;;
1154;SDS011;566;48.414;9.118;2023-04-24T12:44:29;7.00;;;4.20;;
1154;SDS011;566;48.414;9.118;2023-04-24T12:46:56;7.18;;;2.80;;
1154;SDS011;566;48.414;9.118;2023-04-24T12:49:22;4.90;;;2.03;;
1154;SDS011;566;48.414;9.118;2023-04-24T12:51:48;3.83;;;2.20;;
1154;SDS011;566;48.414;9.118;2023-04-24T12:54:13;4.65;;;2.03;;
1154;SDS011;566;48.414;9.118;2023-04-24T12:56:39;7.70;;;2.22;;
1154;SDS011;566;48.414;9.118;2023-04-24T12:59:07;7.32;;;2.17;;
1154;SDS011;566;48.414;9.118;2023-04-24T13:01:33;4.32;;;2.40;;
1154;SDS011;566;48.414;9.118;2023-04-24T13:03:58;5.13;;;2.10;;
1154;SDS011;566;48.414;9.118;2023-04-24T13:06:24;4.07;;;2.20;;
1154;SDS011;566;48.414;9.118;2023-04-24T13:08:51;4.50;;;2.17;;
1154;SDS011;566;48.414;9.118;2023-04-24T13:11:17;4.18;;;2.13;;
1154;SDS011;566;48.414;9.118;2023-04-24T13:13:43;6.15;;;2.00;;
1154;SDS011;566;48.414;9.118;2023-04-24T13:16:08;4.05;;;1.90;;
1154;SDS011;566;48.414;9.118;2023-04-24T13:18:34;4.22;;;2.20;;
1154;SDS011;566;48.414;9.118;2023-04-24T13:21:00;6.10;;;2.17;;
1154;SDS011;566;48.414;9.118;2023-04-24T13:23:25;3.92;;;1.67;;
1154;SDS011;566;48.414;9.118;2023-04-24T13:25:51;5.70;;;1.80;;
1154;SDS011;566;48.414;9.118;2023-04-24T13:28:16;5.28;;;2.00;;
1154;SDS011;566;48.414;9.118;2023-04-24T13:30:43;4.85;;;1.73;;
1154;SDS011;566;48.414;9.118;2023-04-24T13:33:08;5.47;;;2.00;;
1154;SDS011;566;48.414;9.118;2023-04-24T13:35:34;5.70;;;1.80;;
1154;SDS011;566;48.414;9.118;2023-04-24T13:37:59;6.30;;;1.92;;
1154;SDS011;566;48.414;9.118;2023-04-24T13:40:26;5.55;;;2.00;;
1154;SDS011;566;48.414;9.118;2023-04-24T13:42:52;4.13;;;1.85;;
1154;SDS011;566;48.414;9.118;2023-04-24T13:45:18;5.22;;;2.15;;
1154;SDS011;566;48.414;9.118;2023-04-24T13:47:43;4.95;;;1.90;;
1154;SDS011;566;48.414;9.118;2023-04-24T13:50:09;3.40;;;1.88;;
1154;SDS011;566;48.414;9.118;2023-04-24T13:52:35;3.67;;;1.67;;
1154;SDS011;566;48.414;9.118;2023-04-24T13:55:00;4.10;;;1.70;;
1154;SDS011;566;48.414;9.118;2023-04-24T13:57:26;5.03;;;1.83;;
1154;SDS011;566;48.414;9.118;2023-04-24T13:59:53;4.05;;;1.90;;
1154;SDS011;566;48.414;9.118;2023-04-24T14:02:20;6.20;;;2.13;;
1154;SDS011;566;48.414;9.118;2023-04-24T14:04:46;4.53;;;2.03;;
1154;SDS011;566;48.414;9.118;2023-04-24T14:07:13;5.97;;;2.25;;
1154;SDS011;566;48.414;9.118;2023-04-24T14:09:38;4.20;;;2.08;;
1154;SDS011;566;48.414;9.118;2023-04-24T14:12:04;4.20;;;1.80;;
1154;SDS011;566;48.414;9.118;2023-04-24T14:14:30;4.35;;;2.17;;
1154;SDS011;566;48.414;9.118;2023-04-24T14:16:56;4.03;;;2.20;;
1154;SDS011;566;48.414;9.118;2023-04-24T14:19:22;6.97;;;2.70;;
1154;SDS011;566;48.414;9.118;2023-04-24T14:21:48;5.43;;;2.80;;
1154;SDS011;566;48.414;9.118;2023-04-24T14:24:14;4.63;;;2.40;;
1154;SDS011;566;48.414;9.118;2023-04-24T14:26:40;5.32;;;2.90;;
1154;SDS011;566;48.414;9.118;2023-04-24T14:29:06;4.53;;;2.20;;
1154;SDS011;566;48.414;9.118;2023-04-24T14:31:31;5.75;;;1.92;;
1154;SDS011;566;48.414;9.118;2023-04-24T14:33:57;10.52;;;2.13;;
1154;SDS011;566;48.414;9.118;2023-04-24T14:36:23;8.45;;;2.75;;
1154;SDS011;566;48.414;9.118;2023-04-24T14:38:49;5.53;;;2.35;;
1154;SDS011;566;48.414;9.118;2023-04-24T14:41:14;4.38;;;2.13;;
1154;SDS011;566;48.414;9.118;2023-04-24T14:43:40;7.40;;;2.53;;
1154;SDS011;566;48.414;9.118;2023-04-24T14:46:06;4.00;;;2.25;;
1154;SDS011;566;48.414;9.118;2023-04-24T14:48:31;4.22;;;2.08;;
1154;SDS011;566;48.414;9.118;2023-04-24T14:50:57;5.82;;;2.10;;
1154;SDS011;566;48.414;9.118;2023-04-24T14:53:23;5.68;;;2.60;;
1154;SDS011;566;48.414;9.118;2023-04-24T14:55:49;4.05;;;2.00;;
1154;SDS011;566;48.414;9.118;2023-04-24T14:58:14;5.78;;;2.42;;
1154;SDS011;566;48.414;9.118;2023-04-24T15:00:40;4.07;;;2.08;;
1154;SDS011;566;48.414;9.118;2023-04-24T15:03:05;6.13;;;2.35;;
1154;SDS011;566;48.414;9.118;2023-04-24T15:05:32;9.25;;;3.58;;
1154;SDS011;566;48.414;9.118;2023-04-24T15:07:58;5.90;;;2.35;;
1154;SDS011;566;48.414;9.118;2023-04-24T15:10:25;8.80;;;3.45;;
1154;SDS011;566;48.414;9.118;2023-04-24T15:12:51;11.15;;;3.83;;
1154;SDS011;566;48.414;9.118;2023-04-24T15:15:17;4.75;;;2.00;;
1154;SDS011;566;48.414;9.118;2023-04-24T15:17:46;7.55;;;2.20;;
1154;SDS011;566;48.414;9.118;2023-04-24T15:20:12;4.22;;;1.90;;
1154;SDS011;566;48.414;9.118;2023-04-24T15:22:37;3.67;;;1.80;;
1154;SDS011;566;48.414;9.118;2023-04-24T15:25:03;4.47;;;2.00;;
1154;SDS011;566;48.414;9.118;2023-04-24T15:27:43;4.05;;;2.00;;
1154;SDS011;566;48.414;9.118;2023-04-24T15:30:09;4.45;;;2.00;;
1154;SDS011;566;48.414;9.118;2023-04-24T15:32:36;5.50;;;2.13;;
1154;SDS011;566;48.414;9.118;2023-04-24T15:35:01;5.72;;;2.70;;
1154;SDS011;566;48.414;9.118;2023-04-24T15:37:27;5.82;;;2.28;;
1154;SDS011;566;48.414;9.118;2023-04-24T15:39:53;3.95;;;1.98;;
1154;SDS011;566;48.414;9.118;2023-04-24T15:42:18;4.82;;;2.83;;
1154;SDS011;566;48.414;9.118;2023-04-24T15:44:44;5.65;;;2.90;;
1154;SDS011;566;48.414;9.118;2023-04-24T15:47:09;8.30;;;3.53;;